Time;durP1;ratioP1;P1;durP2;ratioP2;P2;SDS_P1;SDS_P2;PMS_P1;PMS_P2;Temp;Humidity;BMP_temperature;BMP_pressure;BME280_temperature;BME280_humidity;BME280_pressure;Samples;Min_cycle;Max_cycle;Signal;HPM_P1;HPM_P2
2023/07/24 00:02:25;;;;;;;0.60;0.60;;;18.40;99.90;;;;;;6033784;23;20022;-87
2023/07/24 00:04:50;;;;;;;0.70;0.70;;;18.50;99.90;;;;;;6009463;23;20061;-85
2023/07/24 00:07:16;;;;;;;0.70;0.70;;;18.40;99.90;;;;;;6010594;23;20050;-85
2023/07/24 00:09:42;;;;;;;0.70;0.70;;;18.30;99.90;;;;;;6033647;23;20512;-85
2023/07/24 00:12:08;;;;;;;0.70;0.70;;;18.40;99.90;;;;;;6010044;23;20173;-83
2023/07/24 00:14:33;;;;;;;0.63;0.63;;;18.30;99.90;;;;;;6010014;23;20022;-84
2023/07/24 00:16:59;;;;;;;0.60;0.60;;;18.30;99.90;;;;;;6033423;23;20027;-83
2023/07/24 00:19:25;;;;;;;0.68;0.68;;;18.10;99.90;;;;;;6033504;23;20447;-83
2023/07/24 00:21:50;;;;;;;0.63;0.63;;;18.40;99.90;;;;;;6033416;23;20122;-82
2023/07/24 00:24:16;;;;;;;0.70;0.70;;;18.30;99.90;;;;;;6033017;23;20026;-85
2023/07/24 00:26:42;;;;;;;0.63;0.63;;;18.40;99.90;;;;;;6033651;23;20023;-82
2023/07/24 00:29:07;;;;;;;0.63;0.63;;;18.50;99.90;;;;;;6033750;23;20066;-87
2023/07/24 00:31:33;;;;;;;0.70;0.70;;;18.30;99.90;;;;;;6033720;23;20023;-83
2023/07/24 00:34:00;;;;;;;0.70;0.70;;;18.40;99.90;;;;;;6033005;23;20026;-82
2023/07/24 00:36:26;;;;;;;0.70;0.70;;;18.40;99.90;;;;;;6009312;23;20105;-86
2023/07/24 00:38:52;;;;;;;0.70;0.70;;;18.30;99.90;;;;;;6033278;23;20118;-84
2023/07/24 00:41:17;;;;;;;0.70;0.70;;;18.40;99.90;;;;;;6033085;23;20407;-85
2023/07/24 00:43:43;;;;;;;0.70;0.70;;;18.20;99.90;;;;;;6032621;23;20018;-84
2023/07/24 00:46:11;;;;;;;0.70;0.70;;;18.20;99.90;;;;;;6033982;23;20026;-86
2023/07/24 00:48:38;;;;;;;0.80;0.80;;;18.20;99.90;;;;;;6010145;23;20122;-87
2023/07/24 00:51:03;;;;;;;0.70;0.70;;;18.30;99.90;;;;;;6009725;23;20019;-85
2023/07/24 00:53:29;;;;;;;0.70;0.70;;;18.30;99.90;;;;;;6033792;23;20033;-88
2023/07/24 00:55:55;;;;;;;0.70;0.70;;;18.50;99.90;;;;;;6032676;23;20534;-85
2023/07/24 00:58:22;;;;;;;0.70;0.70;;;18.40;99.90;;;;;;6033812;23;20462;-86
2023/07/24 01:00:47;;;;;;;0.70;0.70;;;18.40;99.90;;;;;;6031355;23;20015;-85
2023/07/24 01:03:13;;;;;;;0.77;0.77;;;18.40;99.90;;;;;;6033891;23;20075;-87
2023/07/24 01:05:41;;;;;;;0.70;0.70;;;18.20;99.90;;;;;;6009303;23;20482;-86
2023/07/24 01:08:07;;;;;;;0.70;0.70;;;18.30;99.90;;;;;;6010434;23;20023;-83
2023/07/24 01:10:32;;;;;;;0.70;0.70;;;18.50;99.90;;;;;;6032789;23;20029;-90
2023/07/24 01:13:15;;;;;;;0.68;0.68;;;18.30;99.90;;;;;;6009192;23;20018;-87
2023/07/24 01:15:48;;;;;;;0.70;0.70;;;18.40;99.90;;;;;;6032800;23;20019;-85
2023/07/24 01:18:16;;;;;;;0.70;0.70;;;18.30;99.90;;;;;;6033713;23;20023;-85
2023/07/24 01:20:55;;;;;;;0.75;0.75;;;18.20;99.90;;;;;;6008391;23;20074;-84
2023/07/24 01:23:56;;;;;;;0.77;0.77;;;18.30;99.90;;;;;;6033117;23;20447;-85
2023/07/24 01:26:23;;;;;;;0.70;0.70;;;18.10;99.90;;;;;;6009200;23;20455;-85
2023/07/24 01:28:49;;;;;;;0.75;0.75;;;18.20;99.90;;;;;;6009691;23;20023;-88
2023/07/24 01:31:16;;;;;;;0.73;0.73;;;18.20;99.90;;;;;;6032857;23;20374;-86
2023/07/24 01:33:43;;;;;;;0.70;0.70;;;18.20;99.90;;;;;;6032492;23;20023;-87
2023/07/24 01:36:09;;;;;;;0.77;0.77;;;18.20;99.90;;;;;;6010445;23;20019;-86
2023/07/24 01:38:36;;;;;;;0.70;0.70;;;18.20;99.90;;;;;;6035728;23;20671;-87
2023/07/24 01:41:03;;;;;;;0.70;0.70;;;18.10;99.90;;;;;;6011235;23;20045;-87
2023/07/24 01:43:30;;;;;;;0.70;0.70;;;18.10;99.90;;;;;;6012212;23;20354;-88
2023/07/24 01:45:56;;;;;;;0.70;0.70;;;18.10;99.90;;;;;;6011470;23;20076;-86
2023/07/24 01:48:22;;;;;;;0.80;0.80;;;18.00;99.90;;;;;;6037461;23;20125;-89
2023/07/24 01:50:48;;;;;;;0.70;0.70;;;17.90;99.90;;;;;;6036854;23;20014;-90
2023/07/24 01:53:13;;;;;;;0.70;0.70;;;18.00;99.90;;;;;;6013467;23;20025;-89
2023/07/24 01:55:39;;;;;;;0.70;0.70;;;17.90;99.90;;;;;;6011748;23;20873;-87
2023/07/24 01:58:05;;;;;;;0.70;0.70;;;18.10;99.90;;;;;;6013239;23;20023;-87
2023/07/24 02:00:30;;;;;;;0.70;0.70;;;18.00;99.90;;;;;;6034558;23;20041;-87
2023/07/24 02:02:56;;;;;;;0.70;0.70;;;18.00;99.90;;;;;;6011757;23;20113;-86
2023/07/24 02:05:22;;;;;;;0.80;0.80;;;17.90;99.90;;;;;;6034725;23;20018;-86
2023/07/24 02:07:48;;;;;;;0.80;0.80;;;17.60;99.90;;;;;;6035117;23;20019;-84
2023/07/24 02:10:14;;;;;;;0.70;0.70;;;17.60;99.90;;;;;;6035168;23;20019;-86
2023/07/24 02:12:39;;;;;;;0.70;0.70;;;17.60;99.90;;;;;;6011409;23;20058;-85
2023/07/24 02:15:06;;;;;;;0.70;0.70;;;17.70;99.90;;;;;;6010965;23;20054;-85
2023/07/24 02:17:32;;;;;;;0.70;0.70;;;17.90;99.90;;;;;;6036225;23;20436;-87
2023/07/24 02:19:57;;;;;;;0.70;0.70;;;17.90;99.90;;;;;;6013436;23;20057;-91
2023/07/24 02:22:29;;;;;;;0.70;0.70;;;17.60;99.90;;;;;;6013552;23;20061;-92
2023/07/24 02:24:55;;;;;;;0.70;0.70;;;17.50;99.90;;;;;;6012373;23;20450;-90
2023/07/24 02:27:34;;;;;;;0.70;0.70;;;17.80;99.90;;;;;;6012424;23;20022;-86
2023/07/24 02:30:00;;;;;;;0.70;0.70;;;17.70;99.90;;;;;;6012282;23;20023;-88
2023/07/24 02:32:26;;;;;;;0.70;0.70;;;17.90;99.90;;;;;;6036766;23;20029;-88
2023/07/24 02:34:53;;;;;;;0.70;0.70;;;17.80;99.90;;;;;;6013275;23;20022;-87
2023/07/24 02:37:19;;;;;;;0.70;0.70;;;17.50;99.90;;;;;;6036344;23;20054;-88
2023/07/24 02:39:45;;;;;;;0.60;0.60;;;17.50;99.90;;;;;;6034807;23;20023;-89
2023/07/24 02:42:11;;;;;;;0.70;0.70;;;17.90;99.90;;;;;;6011746;23;20556;-87
2023/07/24 02:44:38;;;;;;;0.70;0.70;;;17.70;99.90;;;;;;6010958;23;20019;-86
2023/07/24 02:47:03;;;;;;;0.65;0.65;;;17.70;99.90;;;;;;6034502;23;20023;-88
2023/07/24 02:49:29;;;;;;;0.70;0.70;;;17.80;99.90;;;;;;6012142;23;20019;-90
2023/07/24 02:51:55;;;;;;;0.60;0.60;;;17.80;99.90;;;;;;6010721;23;20026;-86
2023/07/24 02:54:21;;;;;;;0.70;0.70;;;17.80;99.90;;;;;;6010954;23;20022;-87
2023/07/24 02:56:47;;;;;;;0.63;0.63;;;17.30;99.90;;;;;;6011157;23;20018;-89
2023/07/24 02:59:12;;;;;;;0.60;0.60;;;17.80;99.90;;;;;;6010899;23;20635;-86
2023/07/24 03:01:38;;;;;;;0.60;0.60;;;17.70;99.90;;;;;;6011140;23;20026;-86
2023/07/24 03:04:05;;;;;;;0.70;0.70;;;17.60;99.90;;;;;;6010900;23;20030;-86
2023/07/24 03:06:31;;;;;;;0.65;0.65;;;17.60;99.90;;;;;;6036050;23;20022;-87
2023/07/24 03:08:57;;;;;;;0.60;0.60;;;17.60;99.90;;;;;;6035894;23;20030;-87
2023/07/24 03:11:23;;;;;;;0.70;0.70;;;17.20;99.90;;;;;;6034816;23;20019;-87
2023/07/24 03:13:48;;;;;;;0.70;0.70;;;17.60;99.90;;;;;;6011478;23;20110;-88
2023/07/24 03:16:14;;;;;;;0.60;0.60;;;17.60;99.90;;;;;;6036582;23;20501;-90
2023/07/24 03:18:40;;;;;;;0.60;0.60;;;17.60;99.90;;;;;;6011819;23;20121;-85
2023/07/24 03:21:05;;;;;;;0.60;0.60;;;17.30;99.90;;;;;;6033820;23;20397;-87
2023/07/24 03:23:31;;;;;;;0.60;0.60;;;17.70;99.90;;;;;;6010235;23;20433;-85
2023/07/24 03:25:57;;;;;;;0.60;0.60;;;17.60;99.90;;;;;;6010302;23;20022;-87
2023/07/24 03:28:22;;;;;;;0.60;0.60;;;17.60;99.90;;;;;;6035124;23;20046;-84
2023/07/24 03:30:57;;;;;;;0.60;0.60;;;17.70;99.90;;;;;;6012951;23;20109;-95
2023/07/24 03:33:23;;;;;;;0.60;0.60;;;17.30;99.90;;;;;;6012655;23;20526;-92
2023/07/24 03:35:52;;;;;;;0.60;0.60;;;17.40;99.90;;;;;;6036970;23;20026;-88
2023/07/24 03:38:20;;;;;;;0.60;0.60;;;17.80;99.90;;;;;;6014687;23;20331;-92
2023/07/24 03:40:47;;;;;;;0.60;0.60;;;17.40;99.90;;;;;;6037885;23;20057;-88
2023/07/24 03:43:13;;;;;;;0.60;0.60;;;17.80;99.90;;;;;;6036200;23;20365;-91
2023/07/24 03:45:39;;;;;;;0.60;0.60;;;17.50;99.90;;;;;;6013158;23;20015;-88
2023/07/24 03:48:07;;;;;;;0.70;0.70;;;17.60;99.90;;;;;;6060972;23;20031;-89
2023/07/24 03:50:33;;;;;;;0.65;0.65;;;17.70;99.90;;;;;;6013410;23;20022;-90
2023/07/24 03:53:02;;;;;;;0.60;0.60;;;17.60;99.90;;;;;;6015179;23;20486;-90
2023/07/24 03:55:27;;;;;;;0.60;0.60;;;17.60;99.90;;;;;;6014616;23;20025;-88
2023/07/24 03:57:55;;;;;;;0.70;0.70;;;17.70;99.90;;;;;;6013811;23;20402;-91
2023/07/24 04:00:24;;;;;;;0.70;0.70;;;17.40;99.90;;;;;;6013325;23;20077;-94
2023/07/24 04:02:50;;;;;;;0.70;0.70;;;17.40;99.90;;;;;;6016248;23;20134;-88
2023/07/24 04:05:16;;;;;;;0.70;0.70;;;17.70;99.90;;;;;;6014116;23;20062;-88
2023/07/24 04:07:42;;;;;;;0.68;0.68;;;17.80;99.90;;;;;;6037897;23;20027;-88
2023/07/24 04:10:10;;;;;;;0.70;0.70;;;17.80;99.90;;;;;;6011654;23;20025;-88
2023/07/24 04:12:36;;;;;;;0.65;0.65;;;17.80;99.90;;;;;;6012821;23;20451;-90
2023/07/24 04:15:02;;;;;;;0.70;0.70;;;17.70;99.90;;;;;;6039147;23;20074;-90
2023/07/24 04:17:28;;;;;;;0.70;0.70;;;17.50;99.90;;;;;;6015291;23;20046;-89
2023/07/24 04:19:56;;;;;;;0.70;0.70;;;17.40;99.90;;;;;;6011152;23;20045;-93
2023/07/24 04:22:22;;;;;;;0.60;0.60;;;17.50;99.90;;;;;;6014997;23;20030;-90
2023/07/24 04:24:47;;;;;;;0.70;0.70;;;17.70;99.90;;;;;;6012272;23;20110;-88
2023/07/24 04:27:28;;;;;;;0.70;0.70;;;17.60;99.90;;;;;;6038982;23;20439;-94
2023/07/24 04:29:54;;;;;;;0.70;0.70;;;17.50;99.90;;;;;;6014127;23;20028;-89
2023/07/24 04:33:00;;;;;;;0.70;0.70;;;17.70;99.90;;;;;;6015403;23;20109;-96
2023/07/24 04:35:27;;;;;;;0.70;0.70;;;17.60;99.90;;;;;;5985784;23;20027;-90
2023/07/24 04:37:52;;;;;;;0.70;0.70;;;17.50;99.90;;;;;;6011871;23;20114;-92
2023/07/24 04:40:18;;;;;;;0.70;0.70;;;17.50;99.90;;;;;;6012694;23;20019;-92
2023/07/24 04:42:44;;;;;;;0.70;0.70;;;17.60;99.90;;;;;;6015612;23;20023;-90
2023/07/24 04:45:10;;;;;;;0.70;0.70;;;17.80;99.90;;;;;;6009598;23;20069;-93
2023/07/24 04:47:36;;;;;;;0.70;0.70;;;17.70;99.90;;;;;;6012753;23;20481;-92
2023/07/24 04:50:03;;;;;;;0.70;0.70;;;17.70;99.90;;;;;;6013423;23;20018;-91
2023/07/24 04:52:33;;;;;;;0.70;0.70;;;17.60;99.90;;;;;;6037543;23;20029;-93
2023/07/24 04:55:02;;;;;;;0.70;0.70;;;17.50;99.90;;;;;;6014613;23;20027;-94
2023/07/24 04:57:37;;;;;;;0.70;0.70;;;17.80;99.90;;;;;;6014710;23;20034;-92
2023/07/24 05:00:04;;;;;;;0.70;0.70;;;17.60;99.90;;;;;;6013749;23;20018;-90
2023/07/24 05:02:40;;;;;;;0.70;0.70;;;17.70;99.90;;;;;;6011322;23;20030;-93
2023/07/24 05:05:07;;;;;;;0.70;0.70;;;17.50;99.90;;;;;;6013152;23;20014;-92
2023/07/24 05:07:32;;;;;;;0.70;0.70;;;17.60;99.90;;;;;;6015814;23;20027;-91
2023/07/24 05:10:20;;;;;;;0.70;0.70;;;17.70;99.90;;;;;;6015166;23;20023;-91
2023/07/24 05:12:56;;;;;;;0.70;0.70;;;17.60;99.90;;;;;;6038289;23;20030;-92
2023/07/24 05:15:22;;;;;;;0.70;0.70;;;17.80;99.90;;;;;;6015347;23;20043;-89
2023/07/24 05:17:48;;;;;;;0.70;0.70;;;17.50;99.90;;;;;;6013490;23;20019;-91
2023/07/24 05:20:14;;;;;;;0.70;0.70;;;17.60;99.90;;;;;;6012820;23;20468;-89
2023/07/24 05:22:40;;;;;;;0.70;0.70;;;17.80;99.90;;;;;;6013343;23;20082;-94
2023/07/24 05:25:06;;;;;;;0.65;0.65;;;17.80;99.90;;;;;;6014723;23;20158;-89
2023/07/24 05:27:32;;;;;;;1.75;1.65;;;17.50;99.90;;;;;;6014048;23;20023;-90
2023/07/24 05:29:58;;;;;;;0.70;0.70;;;17.70;99.90;;;;;;6013971;23;20023;-91
2023/07/24 05:32:26;;;;;;;0.70;0.70;;;17.80;99.90;;;;;;6015147;23;20022;-92
2023/07/24 05:34:52;;;;;;;0.70;0.70;;;17.60;99.90;;;;;;6015937;23;20054;-94
2023/07/24 05:37:46;;;;;;;0.70;0.70;;;17.60;99.90;;;;;;6016615;23;20023;-93
2023/07/24 05:40:12;;;;;;;0.63;0.63;;;17.50;99.90;;;;;;6013865;23;20015;-94
2023/07/24 05:42:44;;;;;;;0.80;0.80;;;17.60;99.90;;;;;;6014891;23;20023;-94
2023/07/24 05:45:14;;;;;;;0.70;0.70;;;17.60;99.90;;;;;;6015342;23;20018;-92
2023/07/24 05:48:00;;;;;;;0.70;0.70;;;17.90;99.90;;;;;;6014414;23;20089;-93
2023/07/24 05:50:26;;;;;;;0.70;0.70;;;17.80;99.90;;;;;;6013779;23;20026;-89
2023/07/24 05:52:52;;;;;;;0.70;0.70;;;17.80;99.90;;;;;;6014133;23;20034;-91
2023/07/24 05:55:18;;;;;;;0.70;0.70;;;18.30;99.90;;;;;;6014580;23;20025;-92
2023/07/24 05:57:44;;;;;;;0.70;0.70;;;18.00;99.90;;;;;;6013701;23;20030;-91
2023/07/24 06:00:10;;;;;;;0.70;0.70;;;18.50;99.90;;;;;;6014102;23;20466;-94
2023/07/24 06:02:36;;;;;;;0.70;0.70;;;18.40;99.90;;;;;;6014732;23;20023;-93
2023/07/24 06:05:02;;;;;;;0.70;0.70;;;18.50;99.90;;;;;;6013878;23;20078;-92
2023/07/24 06:07:28;;;;;;;0.70;0.70;;;18.30;99.90;;;;;;6013350;23;20042;-93
2023/07/24 06:10:02;;;;;;;0.70;0.70;;;18.10;99.90;;;;;;6014113;23;20018;-96
2023/07/24 06:12:28;;;;;;;0.70;0.70;;;18.50;99.90;;;;;;6013639;23;20023;-88
2023/07/24 06:15:07;;;;;;;0.80;0.80;;;18.60;99.90;;;;;;6041682;23;20026;-93
2023/07/24 06:17:55;;;;;;;0.88;0.88;;;18.70;99.90;;;;;;6040540;23;20023;-95
2023/07/24 06:20:52;;;;;;;0.80;0.80;;;18.60;99.90;;;;;;6015423;23;20145;-93
2023/07/24 06:23:17;;;;;;;0.80;0.80;;;18.30;99.90;;;;;;6038627;23;20026;-91
2023/07/24 06:25:46;;;;;;;0.77;0.77;;;18.50;99.90;;;;;;6016753;23;20023;-94
2023/07/24 06:28:18;;;;;;;0.80;0.80;;;18.60;99.90;;;;;;6016912;23;20081;-96
2023/07/24 06:30:47;;;;;;;0.80;0.80;;;18.80;99.90;;;;;;6017161;23;20056;-92
2023/07/24 06:33:25;;;;;;;0.80;0.80;;;18.70;99.90;;;;;;6022746;23;20605;-96
2023/07/24 06:36:26;;;;;;;0.70;0.70;;;19.10;99.90;;;;;;6017768;23;20023;-95
2023/07/24 06:39:02;;;;;;;0.98;0.98;;;19.20;99.90;;;;;;6018748;23;20101;-89
2023/07/24 06:41:28;;;;;;;0.80;0.80;;;19.40;99.90;;;;;;6016834;23;20109;-85
2023/07/24 06:43:56;;;;;;;0.90;0.90;;;19.50;99.90;;;;;;6039836;23;20319;-93
2023/07/24 06:46:21;;;;;;;0.90;0.90;;;19.20;99.90;;;;;;6038005;23;20022;-91
2023/07/24 06:49:07;;;;;;;0.90;0.90;;;19.30;99.90;;;;;;6040527;23;20018;-95
2023/07/24 06:51:33;;;;;;;0.90;0.90;;;19.30;99.90;;;;;;6015909;23;20035;-91
2023/07/24 06:53:59;;;;;;;0.90;0.90;;;19.00;99.90;;;;;;6016947;23;20019;-90
2023/07/24 06:56:24;;;;;;;0.90;0.90;;;19.30;99.90;;;;;;6017495;23;20027;-89
2023/07/24 06:58:50;;;;;;;0.90;0.90;;;19.20;99.90;;;;;;6014562;23;20151;-90
2023/07/24 07:01:16;;;;;;;0.90;0.90;;;19.10;99.90;;;;;;6017854;23;20079;-88
2023/07/24 07:03:41;;;;;;;1.00;1.00;;;19.10;99.90;;;;;;6015867;23;20023;-89
2023/07/24 07:06:09;;;;;;;0.90;0.90;;;19.10;99.90;;;;;;6014237;23;20033;-88
2023/07/24 07:08:35;;;;;;;0.90;0.90;;;19.10;99.90;;;;;;6038481;23;20647;-87
2023/07/24 07:11:01;;;;;;;0.90;0.90;;;19.30;99.90;;;;;;6012809;23;20027;-87
2023/07/24 07:13:27;;;;;;;0.90;0.90;;;19.30;99.90;;;;;;6035474;23;20446;-88
2023/07/24 07:15:53;;;;;;;0.90;0.90;;;19.20;99.90;;;;;;6037006;23;20058;-87
2023/07/24 07:18:18;;;;;;;0.90;0.90;;;19.30;99.90;;;;;;6014849;23;20034;-88
2023/07/24 07:20:56;;;;;;;0.93;0.93;;;19.30;99.90;;;;;;6014443;23;20101;-91
2023/07/24 07:23:22;;;;;;;1.00;1.00;;;19.30;99.90;;;;;;6013437;23;20447;-88
2023/07/24 07:25:49;;;;;;;1.00;1.00;;;19.30;99.90;;;;;;6037575;23;20022;-90
2023/07/24 07:28:16;;;;;;;0.90;0.90;;;19.30;99.90;;;;;;6037475;23;20403;-93
2023/07/24 07:30:42;;;;;;;0.90;0.90;;;19.30;99.90;;;;;;6014108;23;20030;-88
2023/07/24 07:33:09;;;;;;;0.90;0.90;;;19.20;99.90;;;;;;6013004;23;20533;-91
2023/07/24 07:35:38;;;;;;;0.85;0.85;;;19.10;99.90;;;;;;6036680;23;20066;-86
2023/07/24 07:38:04;;;;;;;0.80;0.80;;;19.40;99.90;;;;;;6015061;23;20101;-91
2023/07/24 07:40:30;;;;;;;0.80;0.80;;;19.70;99.90;;;;;;6012680;23;20443;-87
2023/07/24 07:42:59;;;;;;;0.80;0.80;;;20.30;99.90;;;;;;6014989;23;20023;-90
2023/07/24 07:45:34;;;;;;;0.80;0.80;;;20.80;99.90;;;;;;6036629;23;20033;-95
2023/07/24 07:48:03;;;;;;;0.90;0.90;;;20.40;99.90;;;;;;6014802;23;20284;-93
2023/07/24 07:50:32;;;;;;;0.82;0.82;;;20.40;99.90;;;;;;6014021;23;20164;-92
2023/07/24 07:52:57;;;;;;;0.90;0.90;;;20.30;99.90;;;;;;6014153;23;20138;-92
2023/07/24 07:55:23;;;;;;;0.90;0.90;;;20.10;99.90;;;;;;6037145;23;20054;-87
2023/07/24 07:57:49;;;;;;;0.90;0.90;;;20.60;99.90;;;;;;6039144;23;20051;-90
2023/07/24 08:00:21;;;;;;;0.90;0.90;;;21.20;99.90;;;;;;6016051;23;20023;-92
2023/07/24 08:02:50;;;;;;;0.88;0.88;;;21.60;99.90;;;;;;6036805;23;20018;-90
2023/07/24 08:05:16;;;;;;;0.90;0.90;;;21.90;99.90;;;;;;6014001;23;20027;-89
2023/07/24 08:07:42;;;;;;;0.95;0.95;;;22.00;99.90;;;;;;6037131;23;20023;-90
2023/07/24 08:10:11;;;;;;;0.90;0.90;;;22.00;99.90;;;;;;6013045;23;20030;-93
2023/07/24 08:12:36;;;;;;;1.17;1.17;;;21.30;99.90;;;;;;6037684;23;20375;-91
2023/07/24 08:15:06;;;;;;;1.17;1.17;;;21.20;99.90;;;;;;6014357;23;20034;-93
2023/07/24 08:17:31;;;;;;;1.10;1.10;;;20.90;99.90;;;;;;6012605;23;20481;-88
2023/07/24 08:19:57;;;;;;;1.10;1.10;;;20.50;99.90;;;;;;6039094;23;20023;-93
2023/07/24 08:22:23;;;;;;;1.00;1.00;;;20.40;99.90;;;;;;6038499;23;20019;-90
2023/07/24 08:24:51;;;;;;;0.80;0.80;;;20.50;99.90;;;;;;6012861;23;20078;-90
2023/07/24 08:27:19;;;;;;;1.00;1.00;;;21.30;99.90;;;;;;6013601;23;20027;-96
2023/07/24 08:29:45;;;;;;;1.00;1.00;;;22.00;99.90;;;;;;6012910;23;20015;-89
2023/07/24 08:32:11;;;;;;;1.02;1.02;;;22.30;99.90;;;;;;6011349;23;20839;-92
2023/07/24 08:34:36;;;;;;;1.05;1.05;;;21.80;99.90;;;;;;6011517;23;20022;-91
2023/07/24 08:37:02;;;;;;;1.10;1.10;;;21.50;99.90;;;;;;6013854;23;20022;-94
2023/07/24 08:39:28;;;;;;;1.20;1.20;;;21.30;99.90;;;;;;6013769;23;20030;-94
2023/07/24 08:42:09;;;;;;;1.30;1.30;;;21.10;99.90;;;;;;6037421;23;20041;-91
2023/07/24 08:44:42;;;;;;;0.85;0.85;;;20.90;99.90;;;;;;6037619;23;20332;-95
2023/07/24 08:47:12;;;;;;;1.30;1.30;;;20.90;99.90;;;;;;6012862;23;20054;-87
2023/07/24 08:49:42;;;;;;;3.42;1.38;;;20.80;99.90;;;;;;6011587;23;20478;-93
2023/07/24 08:52:09;;;;;;;1.10;1.10;;;20.90;99.90;;;;;;6037890;23;20026;-93
2023/07/24 08:54:39;;;;;;;0.80;0.80;;;20.80;99.90;;;;;;6033883;23;20054;-88
2023/07/24 08:57:08;;;;;;;0.77;0.77;;;20.90;99.90;;;;;;6033897;23;20022;-88
2023/07/24 08:59:34;;;;;;;1.10;1.10;;;21.00;99.90;;;;;;6033984;23;20022;-90
2023/07/24 09:02:00;;;;;;;0.70;0.70;;;20.90;99.90;;;;;;6010746;23;20027;-88
2023/07/24 09:04:27;;;;;;;0.80;0.80;;;21.00;99.90;;;;;;6009607;23;20051;-91
2023/07/24 09:06:53;;;;;;;1.02;1.02;;;21.60;99.90;;;;;;6010266;23;20023;-89
2023/07/24 09:09:19;;;;;;;1.00;1.00;;;21.70;99.90;;;;;;6010497;23;20019;-90
2023/07/24 09:11:53;;;;;;;1.17;1.17;;;21.60;99.90;;;;;;6034589;23;20477;-89
2023/07/24 09:14:30;;;;;;;1.10;1.10;;;21.50;99.90;;;;;;6034579;23;20022;-88
2023/07/24 09:17:07;;;;;;;1.20;1.20;;;21.60;99.90;;;;;;6010466;23;20063;-87
2023/07/24 09:19:33;;;;;;;1.20;1.20;;;22.30;99.90;;;;;;6009328;23;20395;-87
2023/07/24 09:22:16;;;;;;;1.15;1.15;;;22.80;99.90;;;;;;6032950;23;20023;-84
2023/07/24 09:24:56;;;;;;;1.10;1.10;;;23.10;99.90;;;;;;6032638;23;20039;-86
2023/07/24 09:27:28;;;;;;;1.20;1.20;;;23.40;99.90;;;;;;6033814;23;20030;-91
2023/07/24 09:29:55;;;;;;;0.70;0.70;;;23.70;99.90;;;;;;6033092;23;20487;-88
2023/07/24 09:32:22;;;;;;;1.00;1.00;;;24.00;99.90;;;;;;6033346;23;20082;-87
2023/07/24 09:34:50;;;;;;;0.93;0.93;;;24.10;99.90;;;;;;6032833;23;20113;-84
2023/07/24 09:37:27;;;;;;;0.40;0.40;;;24.20;99.90;;;;;;6033707;23;20058;-85
2023/07/24 09:39:53;;;;;;;0.95;0.95;;;24.20;99.90;;;;;;6033503;23;20050;-84
2023/07/24 09:42:34;;;;;;;0.30;0.30;;;23.90;99.90;;;;;;6032640;23;20078;-90
2023/07/24 09:45:04;;;;;;;1.63;1.52;;;23.90;99.90;;;;;;6009536;23;20034;-87
2023/07/24 09:47:30;;;;;;;0.30;0.30;;;24.30;99.90;;;;;;6036800;23;20030;-84
2023/07/24 09:49:56;;;;;;;1.33;1.33;;;24.20;99.90;;;;;;6037646;23;20022;-88
2023/07/24 09:52:24;;;;;;;0.30;0.30;;;24.10;99.90;;;;;;6037334;23;20046;-82
2023/07/24 09:55:14;;;;;;;0.30;0.30;;;24.20;99.90;;;;;;6013001;23;20493;-84
2023/07/24 09:57:41;;;;;;;0.55;0.55;;;24.20;99.90;;;;;;6037849;23;20023;-82
2023/07/24 10:00:07;;;;;;;0.52;0.52;;;23.80;99.90;;;;;;6038783;23;20019;-85
2023/07/24 10:02:33;;;;;;;1.00;1.00;;;23.70;99.90;;;;;;6038472;23;20023;-88
2023/07/24 10:05:00;;;;;;;0.40;0.40;;;24.60;99.90;;;;;;6038438;23;20343;-84
2023/07/24 10:07:26;;;;;;;0.30;0.30;;;25.00;99.90;;;;;;6064546;23;20054;-90
2023/07/24 10:09:53;;;;;;;0.30;0.30;;;24.60;99.90;;;;;;6039236;23;20015;-83
2023/07/24 10:12:20;;;;;;;0.30;0.30;;;24.30;99.90;;;;;;6038160;23;20544;-87
2023/07/24 10:14:47;;;;;;;0.30;0.30;;;24.10;99.90;;;;;;6038432;23;20343;-82
2023/07/24 10:17:13;;;;;;;0.30;0.30;;;24.70;99.90;;;;;;6038500;23;20023;-83
2023/07/24 10:19:45;;;;;;;0.30;0.30;;;24.60;99.90;;;;;;6038884;23;20026;-86
2023/07/24 10:22:19;;;;;;;0.30;0.30;;;25.10;99.90;;;;;;6037916;23;20030;-89
2023/07/24 10:24:45;;;;;;;0.30;0.30;;;25.50;99.90;;;;;;6013805;23;20019;-82
2023/07/24 10:27:12;;;;;;;0.30;0.30;;;25.70;99.90;;;;;;6063713;23;20060;-82
2023/07/24 10:29:38;;;;;;;0.30;0.30;;;25.20;99.90;;;;;;6038053;23;20018;-85
2023/07/24 10:32:16;;;;;;;0.40;0.40;;;24.50;99.90;;;;;;6038547;23;20530;-86
2023/07/24 10:34:42;;;;;;;0.30;0.30;;;24.90;99.90;;;;;;6038813;23;20019;-85
2023/07/24 10:37:09;;;;;;;0.40;0.40;;;25.20;99.90;;;;;;6038952;23;20030;-85
2023/07/24 10:39:40;;;;;;;0.30;0.30;;;25.20;99.90;;;;;;6039235;23;20070;-88
2023/07/24 10:42:10;;;;;;;0.30;0.30;;;25.10;99.90;;;;;;6038074;23;20111;-84
2023/07/24 10:44:36;;;;;;;0.30;0.30;;;25.00;99.90;;;;;;6038172;23;20085;-86
2023/07/24 10:47:03;;;;;;;0.30;0.30;;;25.20;99.90;;;;;;6033664;23;20022;-85
2023/07/24 10:49:28;;;;;;;0.30;0.30;;;25.20;99.90;;;;;;6033217;23;20034;-88
2023/07/24 10:51:58;;;;;;;0.30;0.30;;;25.30;99.90;;;;;;6009941;23;20023;-89
2023/07/24 10:54:24;;;;;;;0.30;0.30;;;25.10;99.90;;;;;;6009470;23;20019;-87
2023/07/24 10:56:57;;;;;;;0.40;0.40;;;24.60;99.90;;;;;;6033118;23;20110;-85
2023/07/24 10:59:22;;;;;;;0.30;0.30;;;25.40;99.90;;;;;;6033064;23;20111;-86
2023/07/24 11:01:48;;;;;;;0.30;0.30;;;25.60;99.90;;;;;;6032828;23;20022;-85
2023/07/24 11:04:14;;;;;;;0.30;0.30;;;25.70;99.90;;;;;;6009692;23;20069;-88
2023/07/24 11:06:40;;;;;;;0.30;0.30;;;25.60;99.90;;;;;;6033382;23;20026;-88
2023/07/24 11:09:05;;;;;;;0.30;0.30;;;26.10;99.90;;;;;;6009775;23;20019;-89
2023/07/24 11:11:33;;;;;;;0.30;0.30;;;26.40;99.90;;;;;;6007971;23;20058;-87
2023/07/24 11:14:00;;;;;;;0.32;0.30;;;26.70;99.90;;;;;;6031505;23;20124;-85
2023/07/24 11:16:25;;;;;;;0.38;0.38;;;26.80;99.90;;;;;;6032180;23;20025;-88
2023/07/24 11:18:52;;;;;;;0.30;0.30;;;26.20;99.90;;;;;;6008754;23;20058;-87
2023/07/24 11:21:18;;;;;;;0.38;0.38;;;25.60;99.90;;;;;;6032128;23;20447;-85
2023/07/24 11:23:48;;;;;;;0.30;0.30;;;25.40;99.90;;;;;;6032584;23;20037;-87
2023/07/24 11:26:15;;;;;;;0.30;0.30;;;25.20;99.90;;;;;;6033209;23;20126;-84
2023/07/24 11:28:40;;;;;;;0.40;0.40;;;25.20;99.90;;;;;;6034393;23;20027;-86
2023/07/24 11:31:06;;;;;;;0.40;0.40;;;24.70;99.90;;;;;;6032916;23;20025;-84
2023/07/24 11:33:32;;;;;;;0.30;0.30;;;24.20;99.90;;;;;;6032870;23;20093;-88
2023/07/24 11:35:58;;;;;;;0.30;0.30;;;24.10;99.90;;;;;;6032324;23;20029;-87
2023/07/24 11:38:24;;;;;;;0.30;0.30;;;24.00;99.90;;;;;;6032815;23;20513;-85
2023/07/24 11:40:50;;;;;;;0.30;0.30;;;23.60;99.90;;;;;;6033006;23;20023;-86
2023/07/24 11:43:20;;;;;;;0.30;0.30;;;23.40;99.90;;;;;;6032615;23;20449;-86
2023/07/24 11:45:56;;;;;;;0.30;0.30;;;23.40;99.90;;;;;;6032713;23;20462;-88
2023/07/24 11:48:23;;;;;;;0.30;0.30;;;23.30;99.90;;;;;;6032979;23;20034;-87
2023/07/24 11:50:52;;;;;;;0.40;0.40;;;23.50;99.90;;;;;;6033280;23;20029;-87
2023/07/24 11:53:27;;;;;;;0.60;0.60;;;23.50;99.90;;;;;;6033497;23;20022;-87
2023/07/24 11:55:55;;;;;;;0.50;0.50;;;23.60;99.90;;;;;;6032893;23;20576;-86
2023/07/24 11:58:21;;;;;;;0.60;0.60;;;23.50;99.90;;;;;;6033306;23;20102;-85
2023/07/24 12:00:48;;;;;;;0.30;0.30;;;23.60;99.90;;;;;;6031983;23;20027;-86
2023/07/24 12:03:34;;;;;;;0.50;0.50;;;23.40;99.90;;;;;;6033248;23;20018;-86
2023/07/24 12:06:00;;;;;;;0.60;0.60;;;23.20;99.90;;;;;;6031495;23;20027;-86
2023/07/24 12:08:34;;;;;;;0.50;0.50;;;23.10;99.90;;;;;;6033295;23;20151;-88
2023/07/24 12:10:59;;;;;;;0.73;0.73;;;22.90;99.90;;;;;;6032466;23;20057;-87
2023/07/24 12:13:25;;;;;;;0.30;0.30;;;23.00;99.90;;;;;;6009622;23;20023;-87
2023/07/24 12:15:51;;;;;;;1.00;1.00;;;23.30;99.90;;;;;;6032596;23;20027;-86
2023/07/24 12:18:17;;;;;;;1.02;1.02;;;23.70;99.90;;;;;;6032761;23;20019;-90
2023/07/24 12:20:42;;;;;;;0.90;0.90;;;23.80;99.90;;;;;;6032311;23;20600;-86
2023/07/24 12:23:08;;;;;;;0.30;0.30;;;24.00;99.90;;;;;;6034036;23;20083;-87
2023/07/24 12:25:33;;;;;;;0.60;0.60;;;24.10;99.90;;;;;;6032455;23;20090;-88
2023/07/24 12:27:59;;;;;;;0.85;0.85;;;24.10;99.90;;;;;;6008870;23;20642;-89
2023/07/24 12:30:25;;;;;;;0.55;0.55;;;24.10;99.90;;;;;;6009711;23;20121;-87
2023/07/24 12:32:50;;;;;;;0.85;0.85;;;24.10;99.90;;;;;;6032897;23;20474;-87
2023/07/24 12:35:17;;;;;;;0.30;0.30;;;24.80;99.90;;;;;;6009126;23;20061;-85
2023/07/24 12:37:46;;;;;;;0.30;0.30;;;24.60;99.90;;;;;;6032676;23;20027;-87
2023/07/24 12:40:13;;;;;;;0.80;0.80;;;24.40;99.90;;;;;;6030376;23;20026;-85
2023/07/24 12:42:39;;;;;;;0.30;0.30;;;24.10;99.90;;;;;;6008256;23;20014;-86
2023/07/24 12:45:05;;;;;;;0.98;0.98;;;24.00;99.90;;;;;;6033228;23;20050;-88
2023/07/24 12:47:31;;;;;;;0.30;0.30;;;24.10;99.90;;;;;;6033305;23;20034;-86
2023/07/24 12:49:58;;;;;;;0.30;0.30;;;23.80;99.90;;;;;;6033626;23;20026;-86
2023/07/24 12:52:25;;;;;;;0.70;0.70;;;24.50;99.90;;;;;;6033829;23;20023;-86
2023/07/24 12:54:50;;;;;;;0.30;0.30;;;24.80;99.90;;;;;;6033797;23;20046;-90